createdAt,value
2023-05-01T00:00:28.573Z,64.87
2023-05-01T00:01:28.647Z,64.79
2023-05-01T00:02:28.788Z,64.42
2023-05-01T00:03:28.889Z,64.68
2023-05-01T00:04:29.023Z,64.21
2023-05-01T00:05:28.978Z,64.42
2023-05-01T00:06:29.108Z,64.18
2023-05-01T00:07:29.137Z,63.88
2023-05-01T00:08:29.220Z,63.51
2023-05-01T00:09:29.306Z,63.38
2023-05-01T00:10:29.378Z,63.36
2023-05-01T00:11:29.464Z,63.26
2023-05-01T00:12:29.545Z,63.42
2023-05-01T00:13:29.616Z,63.36
2023-05-01T00:14:29.703Z,63.32
2023-05-01T00:15:29.777Z,62.99
2023-05-01T00:16:29.915Z,63.11
2023-05-01T00:17:29.977Z,63.00
2023-05-01T00:18:30.023Z,63.09
2023-05-01T00:19:30.108Z,63.08
2023-05-01T00:20:30.181Z,63.18
2023-05-01T00:21:30.271Z,63.15
2023-05-01T00:22:30.358Z,63.35
2023-05-01T00:23:30.445Z,63.17
2023-05-01T00:24:30.540Z,63.34
2023-05-01T00:25:36.607Z,63.35
2023-05-01T00:26:30.717Z,63.67
2023-05-01T00:27:30.810Z,63.67
2023-05-01T00:28:30.891Z,63.84
2023-05-01T00:29:30.985Z,63.81
2023-05-01T00:30:31.068Z,63.84
2023-05-01T00:31:31.183Z,63.86
2023-05-01T00:32:31.270Z,63.81
2023-05-01T00:33:31.311Z,63.82
2023-05-01T00:34:31.373Z,63.96
2023-05-01T00:35:31.461Z,63.93
2023-05-01T00:36:31.522Z,63.95
2023-05-01T00:37:31.629Z,64.11
2023-05-01T00:38:31.708Z,64.33
2023-05-01T00:39:31.801Z,64.36
2023-05-01T00:40:31.869Z,64.45
2023-05-01T00:41:31.965Z,64.54
2023-05-01T00:42:32.054Z,64.46
2023-05-01T00:43:32.159Z,64.28
2023-05-01T00:44:32.233Z,64.14
2023-05-01T00:45:32.339Z,64.16
2023-05-01T00:46:32.543Z,64.19
2023-05-01T00:47:32.530Z,64.13
2023-05-01T00:48:32.578Z,64.26
2023-05-01T00:49:32.663Z,64.39
2023-05-01T00:50:32.750Z,64.53
2023-05-01T00:51:32.821Z,64.82
2023-05-01T00:52:32.910Z,64.99
2023-05-01T00:53:32.992Z,65.22
2023-05-01T00:54:33.066Z,65.39
2023-05-01T00:55:33.163Z,65.66
2023-05-01T00:56:39.218Z,65.88
2023-05-01T00:57:33.330Z,66.27
2023-05-01T00:58:33.441Z,66.50
2023-05-01T00:59:33.507Z,66.67
2023-05-01T01:00:33.591Z,66.58
2023-05-01T01:01:33.697Z,66.80
2023-05-01T01:02:33.779Z,66.90
2023-05-01T01:03:33.833Z,67.03
2023-05-01T01:04:33.956Z,67.01
2023-05-01T01:05:33.991Z,67.17
2023-05-01T01:06:34.123Z,67.27
2023-05-01T01:07:34.153Z,67.40
2023-05-01T01:08:34.219Z,67.54
2023-05-01T01:09:34.305Z,67.52
2023-05-01T01:10:34.410Z,67.49
2023-05-01T01:11:34.487Z,67.63
2023-05-01T01:12:34.565Z,67.72
2023-05-01T01:13:34.645Z,67.80
2023-05-01T01:14:34.736Z,67.85
2023-05-01T01:15:34.802Z,67.81
2023-05-01T01:16:34.893Z,67.90
2023-05-01T01:17:35.033Z,67.83
2023-05-01T01:18:35.040Z,67.72
2023-05-01T01:19:35.132Z,67.66
2023-05-01T01:20:35.205Z,67.66
2023-05-01T01:21:35.286Z,67.57
2023-05-01T01:22:35.383Z,67.09
2023-05-01T01:23:35.466Z,66.92
2023-05-01T01:24:35.579Z,66.92
2023-05-01T01:25:35.616Z,66.77
2023-05-01T01:26:35.706Z,66.62
2023-05-01T01:27:42.283Z,66.56
2023-05-01T01:28:35.850Z,66.61
2023-05-01T01:29:35.964Z,66.58
2023-05-01T01:30:36.027Z,66.41
2023-05-01T01:31:36.270Z,65.98
2023-05-01T01:32:36.216Z,65.48
2023-05-01T01:33:36.244Z,64.97
2023-05-01T01:34:36.342Z,64.87
2023-05-01T01:35:36.417Z,64.92
2023-05-01T01:36:36.493Z,64.57
2023-05-01T01:37:36.576Z,64.59
2023-05-01T01:38:36.675Z,64.47
2023-05-01T01:39:36.768Z,64.80
2023-05-01T01:40:36.888Z,64.38
2023-05-01T01:41:36.935Z,64.11
2023-05-01T01:42:37.018Z,64.12
2023-05-01T01:43:37.102Z,63.97
2023-05-01T01:44:37.231Z,63.84
2023-05-01T01:45:37.300Z,63.45
2023-05-01T01:46:37.455Z,63.46
2023-05-01T01:47:37.532Z,63.50
2023-05-01T01:48:37.509Z,63.54
2023-05-01T01:49:37.579Z,63.92
2023-05-01T01:50:37.673Z,64.18
2023-05-01T01:51:37.759Z,64.08
2023-05-01T01:52:37.837Z,64.20
2023-05-01T01:53:37.934Z,64.23
2023-05-01T01:54:38.065Z,64.23
2023-05-01T01:55:38.070Z,64.24
2023-05-01T01:56:38.156Z,64.45
2023-05-01T01:57:38.246Z,64.25
2023-05-01T01:58:44.799Z,64.18
2023-05-01T01:59:38.401Z,64.36
2023-05-01T02:00:38.492Z,64.46
2023-05-01T02:01:38.639Z,64.63
2023-05-01T02:02:38.812Z,64.71
2023-05-01T02:03:38.951Z,64.81
2023-05-01T02:04:38.790Z,64.85
2023-05-01T02:05:38.875Z,65.05
2023-05-01T02:06:39.020Z,65.04
2023-05-01T02:07:39.028Z,65.29
2023-05-01T02:08:39.133Z,65.38
2023-05-01T02:09:39.168Z,65.64
2023-05-01T02:10:39.249Z,65.48
2023-05-01T02:11:39.337Z,65.53
2023-05-01T02:12:39.416Z,65.85
2023-05-01T02:13:39.495Z,65.80
2023-05-01T02:14:39.577Z,65.97
2023-05-01T02:15:39.709Z,65.94
2023-05-01T02:16:39.803Z,66.05
2023-05-01T02:17:39.965Z,66.20
2023-05-01T02:18:39.904Z,66.39
2023-05-01T02:19:39.973Z,66.51
2023-05-01T02:20:40.064Z,66.54
2023-05-01T02:21:40.135Z,66.59
2023-05-01T02:22:40.221Z,66.77
2023-05-01T02:23:40.310Z,67.00
2023-05-01T02:24:40.376Z,67.26
2023-05-01T02:25:40.456Z,67.37
2023-05-01T02:26:40.542Z,66.98
2023-05-01T02:27:40.647Z,66.67
2023-05-01T02:28:40.696Z,66.72
2023-05-01T02:29:46.848Z,66.74
2023-05-01T02:30:40.870Z,66.80
2023-05-01T02:31:41.022Z,66.89
2023-05-01T02:32:41.075Z,67.09
2023-05-01T02:33:41.115Z,67.17
2023-05-01T02:34:41.194Z,67.34
2023-05-01T02:35:41.275Z,67.52
2023-05-01T02:36:41.360Z,67.58
2023-05-01T02:37:41.449Z,67.66
2023-05-01T02:38:41.532Z,67.75
2023-05-01T02:39:41.631Z,67.59
2023-05-01T02:40:41.696Z,67.58
2023-05-01T02:41:41.782Z,67.58
2023-05-01T02:42:41.845Z,67.68
2023-05-01T02:43:41.950Z,67.80
2023-05-01T02:44:42.024Z,68.11
2023-05-01T02:45:42.156Z,68.01
2023-05-01T02:46:42.214Z,67.98
2023-05-01T02:47:42.318Z,68.14
2023-05-01T02:48:42.385Z,68.14
2023-05-01T02:49:42.467Z,68.07
2023-05-01T02:50:42.549Z,68.23
2023-05-01T02:51:42.662Z,68.16
2023-05-01T02:52:42.726Z,68.34
2023-05-01T02:53:42.829Z,68.07
2023-05-01T02:54:42.907Z,68.19
2023-05-01T02:55:43.006Z,68.28
2023-05-01T02:56:43.071Z,68.61
2023-05-01T02:57:43.158Z,68.75
2023-05-01T02:58:43.252Z,68.94
2023-05-01T02:59:43.330Z,68.99
2023-05-01T03:00:49.481Z,69.36
2023-05-01T03:01:43.499Z,69.88
2023-05-01T03:02:43.596Z,70.22
2023-05-01T03:03:43.683Z,70.37
2023-05-01T03:04:43.821Z,70.58
2023-05-01T03:05:43.856Z,70.82
2023-05-01T03:06:43.961Z,71.13
2023-05-01T03:07:44.083Z,71.42
2023-05-01T03:08:44.077Z,71.41
2023-05-01T03:09:44.162Z,71.41
2023-05-01T03:10:44.279Z,71.31
2023-05-01T03:11:44.333Z,71.12
2023-05-01T03:12:44.412Z,71.06
2023-05-01T03:13:44.503Z,70.66
2023-05-01T03:14:44.585Z,70.27
2023-05-01T03:15:44.666Z,70.26
2023-05-01T03:16:44.848Z,69.97
2023-05-01T03:17:44.904Z,69.83
2023-05-01T03:18:44.912Z,69.38
2023-05-01T03:19:45.010Z,69.37
2023-05-01T03:20:45.087Z,69.22
2023-05-01T03:21:45.165Z,69.23
2023-05-01T03:22:45.246Z,69.49
2023-05-01T03:23:45.320Z,69.38
2023-05-01T03:24:45.404Z,69.37
2023-05-01T03:25:45.473Z,69.54
2023-05-01T03:26:45.560Z,69.76
2023-05-01T03:27:45.641Z,69.77
2023-05-01T03:28:45.726Z,69.83
2023-05-01T03:29:45.872Z,69.72
2023-05-01T03:30:45.909Z,69.73
2023-05-01T03:31:51.978Z,70.25
2023-05-01T03:32:46.100Z,70.50
2023-05-01T03:33:46.116Z,70.74
2023-05-01T03:34:46.198Z,70.73
2023-05-01T03:35:46.380Z,70.98
2023-05-01T03:36:46.373Z,70.90
2023-05-01T03:37:46.454Z,71.03
2023-05-01T03:38:46.533Z,71.17
2023-05-01T03:39:46.664Z,71.31
2023-05-01T03:40:46.707Z,71.63
2023-05-01T03:41:46.805Z,71.79
2023-05-01T03:42:46.858Z,72.01
2023-05-01T03:43:47.049Z,72.02
2023-05-01T03:44:47.036Z,71.94
2023-05-01T03:45:47.140Z,71.93
2023-05-01T03:46:47.294Z,72.17
2023-05-01T03:47:47.397Z,72.54
2023-05-01T03:48:47.386Z,72.68
2023-05-01T03:49:47.480Z,72.61
2023-05-01T03:50:47.561Z,72.30
2023-05-01T03:51:47.641Z,71.97
2023-05-01T03:52:47.737Z,71.71
2023-05-01T03:53:47.812Z,71.83
2023-05-01T03:54:47.912Z,71.92
2023-05-01T03:55:47.993Z,71.94
2023-05-01T03:56:48.097Z,72.08
2023-05-01T03:57:48.139Z,72.30
2023-05-01T03:58:48.232Z,72.51
2023-05-01T03:59:48.327Z,72.51
2023-05-01T04:00:48.413Z,72.57
2023-05-01T04:01:48.565Z,72.58
2023-05-01T04:02:54.811Z,72.49
2023-05-01T04:03:48.808Z,72.38
2023-05-01T04:04:48.755Z,72.21
2023-05-01T04:05:48.823Z,72.22
2023-05-01T04:06:48.929Z,72.24
2023-05-01T04:07:48.992Z,72.17
2023-05-01T04:08:49.124Z,71.91
2023-05-01T04:09:49.146Z,72.23
2023-05-01T04:10:49.252Z,72.17
2023-05-01T04:11:49.323Z,72.05
2023-05-01T04:12:49.428Z,72.34
2023-05-01T04:13:49.469Z,72.48
2023-05-01T04:14:49.569Z,72.56
2023-05-01T04:15:49.648Z,72.54
2023-05-01T04:16:49.715Z,72.71
2023-05-01T04:17:49.828Z,72.65
2023-05-01T04:18:49.831Z,72.38
2023-05-01T04:19:49.928Z,72.45
2023-05-01T04:20:50.022Z,72.27
2023-05-01T04:21:50.095Z,72.05
2023-05-01T04:22:50.223Z,71.73
2023-05-01T04:23:50.275Z,71.61
2023-05-01T04:24:50.357Z,71.48
2023-05-01T04:25:50.436Z,71.61
2023-05-01T04:26:50.515Z,71.40
2023-05-01T04:27:50.597Z,71.47
2023-05-01T04:28:50.738Z,71.35
2023-05-01T04:29:50.785Z,71.56
2023-05-01T04:30:50.851Z,71.34
2023-05-01T04:31:50.981Z,71.09
2023-05-01T04:32:51.102Z,70.83
2023-05-01T04:33:57.598Z,70.58
2023-05-01T04:34:51.192Z,70.53
2023-05-01T04:35:51.287Z,70.36
2023-05-01T04:36:51.372Z,70.45
2023-05-01T04:37:51.460Z,69.79
2023-05-01T04:38:51.543Z,69.49
2023-05-01T04:39:51.624Z,69.26
2023-05-01T04:40:51.712Z,69.07
2023-05-01T04:41:51.795Z,69.14
2023-05-01T04:42:51.875Z,69.16
2023-05-01T04:43:51.961Z,68.59
2023-05-01T04:44:52.042Z,68.47
2023-05-01T04:45:52.132Z,68.38
2023-05-01T04:46:52.243Z,68.36
2023-05-01T04:47:52.333Z,68.44
2023-05-01T04:48:52.372Z,68.20
2023-05-01T04:49:52.467Z,68.20
2023-05-01T04:50:52.522Z,68.37
2023-05-01T04:51:52.614Z,67.95
2023-05-01T04:52:52.694Z,68.11
2023-05-01T04:53:52.769Z,67.51
2023-05-01T04:54:52.855Z,67.69
2023-05-01T04:55:52.947Z,67.98
2023-05-01T04:56:52.999Z,68.03
2023-05-01T04:57:53.075Z,67.42
2023-05-01T04:58:53.170Z,67.82
2023-05-01T04:59:53.250Z,67.91
2023-05-01T05:00:53.306Z,67.54
2023-05-01T05:01:53.464Z,67.83
2023-05-01T05:02:53.522Z,67.78
2023-05-01T05:03:53.712Z,67.71
2023-05-01T05:04:59.612Z,67.50
2023-05-01T05:05:53.737Z,67.60
2023-05-01T05:06:53.834Z,67.45
2023-05-01T05:07:53.884Z,67.20
2023-05-01T05:08:53.967Z,66.93
2023-05-01T05:09:54.185Z,66.60
2023-05-01T05:10:54.172Z,67.13
2023-05-01T05:11:54.224Z,66.66
2023-05-01T05:12:54.318Z,66.94
2023-05-01T05:13:54.411Z,66.65
2023-05-01T05:14:54.485Z,66.62
2023-05-01T05:15:54.636Z,66.68
2023-05-01T05:16:54.723Z,66.67
2023-05-01T05:17:56.575Z,66.52
2023-05-01T05:18:54.816Z,66.73
2023-05-01T05:19:55.431Z,66.42
2023-05-01T05:20:55.000Z,65.85
2023-05-01T05:21:55.096Z,65.24
2023-05-01T05:22:55.151Z,64.30
2023-05-01T05:23:55.239Z,64.10
2023-05-01T05:24:55.291Z,63.70
2023-05-01T05:25:55.379Z,64.07
2023-05-01T05:26:55.468Z,64.14
2023-05-01T05:27:55.501Z,64.35
2023-05-01T05:28:55.586Z,64.72
2023-05-01T05:29:55.812Z,65.04
2023-05-01T05:30:55.736Z,65.46
2023-05-01T05:31:55.868Z,65.48
2023-05-01T05:32:55.954Z,65.66
2023-05-01T05:33:55.993Z,65.61
2023-05-01T05:34:56.082Z,65.25
2023-05-01T05:36:02.187Z,65.20
2023-05-01T05:36:56.242Z,64.72
2023-05-01T05:37:56.329Z,63.81
2023-05-01T05:38:56.389Z,62.05
2023-05-01T05:39:56.724Z,61.17
2023-05-01T05:40:56.556Z,61.00
2023-05-01T05:41:56.656Z,60.13
2023-05-01T05:42:56.777Z,60.18
2023-05-01T05:43:56.817Z,60.01
2023-05-01T05:44:56.897Z,60.19
2023-05-01T05:45:57.066Z,59.64
2023-05-01T05:46:57.049Z,59.79
2023-05-01T05:47:57.249Z,60.36
2023-05-01T05:48:57.206Z,60.67
2023-05-01T05:49:57.604Z,60.64
2023-05-01T05:50:57.377Z,60.93
2023-05-01T05:51:57.468Z,60.80
2023-05-01T05:52:57.564Z,60.81
2023-05-01T05:53:57.646Z,60.84
2023-05-01T05:54:57.714Z,60.93
2023-05-01T05:55:57.796Z,61.20
2023-05-01T05:56:57.878Z,60.94
2023-05-01T05:57:57.964Z,61.35
2023-05-01T05:58:58.115Z,61.04
2023-05-01T05:59:58.271Z,61.15
2023-05-01T06:00:58.180Z,60.92
2023-05-01T06:01:58.331Z,60.83
2023-05-01T06:02:58.400Z,61.17
2023-05-01T06:03:58.474Z,61.25
2023-05-01T06:04:58.505Z,61.44
2023-05-01T06:05:58.841Z,61.22
2023-05-01T06:07:04.733Z,61.36
2023-05-01T06:07:58.719Z,61.50
2023-05-01T06:08:58.804Z,61.49
2023-05-01T06:09:58.910Z,61.52
2023-05-01T06:10:58.985Z,61.33
2023-05-01T06:11:59.078Z,61.43
2023-05-01T06:13:06.612Z,61.77
2023-05-01T06:13:59.257Z,61.56
2023-05-01T06:14:59.336Z,61.29
2023-05-01T06:15:59.440Z,60.98
2023-05-01T06:16:59.503Z,60.84
2023-05-01T06:17:59.695Z,60.54
2023-05-01T06:18:59.675Z,60.63
2023-05-01T06:19:59.847Z,60.48
2023-05-01T06:20:59.869Z,60.33
2023-05-01T06:21:59.918Z,59.91
2023-05-01T06:22:59.989Z,60.01
2023-05-01T06:24:00.077Z,59.37
2023-05-01T06:25:00.154Z,59.81
2023-05-01T06:26:00.254Z,59.61
2023-05-01T06:27:01.445Z,59.23
2023-05-01T06:28:00.421Z,58.75
2023-05-01T06:29:00.505Z,58.53
2023-05-01T06:30:00.620Z,58.42
2023-05-01T06:31:00.811Z,57.53
2023-05-01T06:32:00.811Z,58.01
2023-05-01T06:33:00.868Z,57.15
2023-05-01T06:34:00.917Z,57.11
2023-05-01T06:35:01.015Z,56.74
2023-05-01T06:36:01.114Z,56.25
2023-05-01T06:37:01.147Z,55.97
2023-05-01T06:38:07.735Z,55.59
2023-05-01T06:39:01.324Z,54.97
2023-05-01T06:40:01.407Z,54.26
2023-05-01T06:41:01.508Z,53.22
2023-05-01T06:42:01.599Z,52.81
2023-05-01T06:43:01.691Z,52.11
2023-05-01T06:44:01.754Z,51.71
2023-05-01T06:45:01.860Z,51.11
2023-05-01T06:46:01.923Z,50.92
2023-05-01T06:47:02.108Z,50.14
2023-05-01T06:48:02.111Z,50.26
2023-05-01T06:49:02.176Z,49.93
2023-05-01T06:50:05.080Z,49.34
2023-05-01T06:51:02.343Z,48.77
2023-05-01T06:52:02.436Z,48.06
2023-05-01T06:53:02.537Z,48.29
2023-05-01T06:54:02.601Z,46.92
2023-05-01T06:55:02.706Z,46.38
2023-05-01T06:56:02.761Z,46.80
2023-05-01T06:57:02.843Z,46.54
2023-05-01T06:58:12.428Z,46.83
2023-05-01T06:59:03.026Z,46.45
2023-05-01T07:00:03.083Z,46.37
2023-05-01T07:01:03.205Z,46.16
2023-05-01T07:02:03.354Z,46.38
2023-05-01T07:03:03.402Z,46.09
2023-05-01T07:04:03.426Z,46.07
2023-05-01T07:05:03.514Z,46.14
2023-05-01T07:06:03.601Z,46.21
2023-05-01T07:07:03.650Z,46.05
2023-05-01T07:08:03.747Z,45.86
2023-05-01T07:09:10.304Z,44.63
2023-05-01T07:10:03.914Z,45.01
2023-05-01T07:11:03.972Z,45.27
2023-05-01T07:12:04.063Z,44.60
2023-05-01T07:13:04.162Z,44.67
2023-05-01T07:14:04.262Z,44.09
2023-05-01T07:15:04.321Z,43.82
2023-05-01T07:16:04.450Z,43.53
2023-05-01T07:17:04.475Z,44.05
2023-05-01T07:18:04.609Z,44.45
2023-05-01T07:19:04.656Z,44.59
2023-05-01T07:20:04.743Z,43.93
2023-05-01T07:21:04.838Z,43.13
2023-05-01T07:22:04.903Z,43.75
2023-05-01T07:23:07.279Z,42.46
2023-05-01T07:24:05.075Z,43.01
2023-05-01T07:25:05.174Z,42.63
2023-05-01T07:26:05.231Z,43.18
2023-05-01T07:27:05.336Z,43.13
2023-05-01T07:28:05.394Z,42.61
2023-05-01T07:29:05.556Z,42.87
2023-05-01T07:30:05.601Z,41.63
2023-05-01T07:31:05.679Z,41.48
2023-05-01T07:32:05.808Z,40.90
2023-05-01T07:33:05.952Z,41.07
2023-05-01T07:34:05.969Z,40.32
2023-05-01T07:35:06.042Z,39.09
2023-05-01T07:36:06.149Z,39.11
2023-05-01T07:37:06.231Z,38.62
2023-05-01T07:38:06.322Z,37.87
2023-05-01T07:39:06.427Z,37.68
2023-05-01T07:40:13.039Z,37.93
2023-05-01T07:41:06.598Z,37.05
2023-05-01T07:42:06.679Z,37.96
2023-05-01T07:43:06.789Z,38.76
2023-05-01T07:44:07.610Z,37.93
2023-05-01T07:45:06.935Z,36.62
2023-05-01T07:46:07.069Z,36.49
2023-05-01T07:47:07.110Z,36.28
2023-05-01T07:48:07.295Z,35.62
2023-05-01T07:49:07.327Z,36.30
2023-05-01T07:50:07.380Z,36.45
2023-05-01T07:51:07.478Z,36.54
2023-05-01T07:52:07.603Z,36.18
2023-05-01T07:53:07.657Z,35.37
2023-05-01T07:54:07.774Z,35.19
2023-05-01T07:55:07.839Z,35.24
2023-05-01T07:56:07.902Z,35.16
2023-05-01T07:57:07.999Z,34.63
2023-05-01T07:58:08.051Z,35.14
2023-05-01T07:59:08.143Z,35.70
2023-05-01T08:00:08.208Z,35.63
2023-05-01T08:01:08.301Z,35.70
2023-05-01T08:02:08.413Z,35.81
2023-05-01T08:03:08.795Z,36.43
2023-05-01T08:04:08.705Z,36.78
2023-05-01T08:05:08.634Z,35.99
2023-05-01T08:06:08.766Z,36.73
2023-05-01T08:07:08.956Z,37.44
2023-05-01T08:08:08.915Z,37.88
2023-05-01T08:09:09.014Z,38.06
2023-05-01T08:10:09.139Z,38.72
2023-05-01T08:11:15.881Z,38.67
2023-05-01T08:12:09.283Z,37.92
2023-05-01T08:13:09.342Z,36.46
2023-05-01T08:14:09.435Z,36.36
2023-05-01T08:15:09.536Z,35.89
2023-05-01T08:16:09.619Z,35.03
2023-05-01T08:17:09.663Z,35.44
2023-05-01T08:18:09.865Z,34.94
2023-05-01T08:19:09.816Z,35.43
2023-05-01T08:20:09.909Z,36.58
2023-05-01T08:21:09.982Z,37.34
2023-05-01T08:22:10.041Z,37.56
2023-05-01T08:23:10.132Z,36.95
2023-05-01T08:24:10.225Z,35.84
2023-05-01T08:25:10.329Z,34.55
2023-05-01T08:26:10.413Z,33.78
2023-05-01T08:27:10.462Z,34.42
2023-05-01T08:28:10.556Z,34.62
2023-05-01T08:29:10.658Z,34.19
2023-05-01T08:30:10.747Z,33.75
2023-05-01T08:31:10.855Z,33.81
2023-05-01T08:32:10.944Z,33.54
2023-05-01T08:33:11.050Z,32.96
2023-05-01T08:34:11.127Z,34.70
2023-05-01T08:35:11.272Z,35.92
2023-05-01T08:36:11.306Z,35.13
2023-05-01T08:37:11.391Z,33.89
2023-05-01T08:38:11.512Z,33.99
2023-05-01T08:39:11.573Z,33.65
2023-05-01T08:40:11.649Z,33.95
2023-05-01T08:41:11.735Z,33.05
2023-05-01T08:42:17.822Z,33.03
2023-05-01T08:43:11.894Z,32.89
2023-05-01T08:44:11.987Z,33.03
2023-05-01T08:45:12.049Z,32.26
2023-05-01T08:46:12.172Z,32.15
2023-05-01T08:47:12.484Z,32.87
2023-05-01T08:48:12.325Z,33.03
2023-05-01T08:49:12.379Z,32.93
2023-05-01T08:50:12.488Z,32.76
2023-05-01T08:51:12.516Z,32.35
2023-05-01T08:52:12.606Z,32.83
2023-05-01T08:53:12.665Z,33.90
2023-05-01T08:54:12.720Z,34.13
2023-05-01T08:55:12.782Z,35.16
2023-05-01T08:56:12.875Z,35.50
2023-05-01T08:57:12.965Z,34.81
2023-05-01T08:58:13.066Z,34.18
2023-05-01T08:59:13.121Z,32.56
2023-05-01T09:00:13.217Z,32.27
2023-05-01T09:01:13.385Z,31.69
2023-05-01T09:02:13.419Z,32.30
2023-05-01T09:03:13.514Z,31.83
2023-05-01T09:04:13.607Z,31.88
2023-05-01T09:05:13.614Z,31.47
2023-05-01T09:06:13.794Z,30.59
2023-05-01T09:07:13.784Z,30.26
2023-05-01T09:08:13.899Z,31.05
2023-05-01T09:09:14.663Z,30.22
2023-05-01T09:10:14.076Z,30.20
2023-05-01T09:11:14.125Z,31.15
2023-05-01T09:12:14.231Z,31.10
2023-05-01T09:13:21.299Z,31.40
2023-05-01T09:14:14.411Z,32.49
2023-05-01T09:15:14.505Z,32.24
2023-05-01T09:16:14.637Z,32.41
2023-05-01T09:17:14.657Z,32.76
2023-05-01T09:18:14.895Z,31.73
2023-05-01T09:19:14.853Z,30.22
2023-05-01T09:20:14.957Z,28.99
2023-05-01T09:21:15.047Z,28.99
2023-05-01T09:22:15.141Z,30.25
2023-05-01T09:23:15.196Z,30.41
2023-05-01T09:24:15.292Z,28.33
2023-05-01T09:25:15.393Z,28.23
2023-05-01T09:26:15.445Z,27.77
2023-05-01T09:27:15.548Z,28.34
2023-05-01T09:28:15.604Z,27.93
2023-05-01T09:29:15.693Z,28.48
2023-05-01T09:30:15.762Z,27.37
2023-05-01T09:31:15.841Z,29.00
2023-05-01T09:32:15.917Z,28.32
2023-05-01T09:33:16.002Z,29.12
2023-05-01T09:34:16.088Z,31.59
2023-05-01T09:35:16.146Z,29.22
2023-05-01T09:36:16.239Z,30.65
2023-05-01T09:37:16.356Z,30.59
2023-05-01T09:38:16.447Z,30.96
2023-05-01T09:39:16.520Z,30.81
2023-05-01T09:40:16.606Z,29.71
2023-05-01T09:41:16.652Z,29.22
2023-05-01T09:42:16.746Z,29.43
2023-05-01T09:43:16.845Z,29.94
2023-05-01T09:44:22.917Z,28.27
2023-05-01T09:45:16.995Z,28.04
2023-05-01T09:46:17.172Z,27.52
2023-05-01T09:47:17.152Z,27.64
2023-05-01T09:48:17.244Z,28.39
2023-05-01T09:49:17.313Z,28.86
2023-05-01T09:50:17.420Z,27.70
2023-05-01T09:51:17.471Z,27.66
2023-05-01T09:52:17.563Z,27.84
2023-05-01T09:53:17.657Z,27.60
2023-05-01T09:54:17.749Z,26.97
2023-05-01T09:55:17.841Z,27.88
2023-05-01T09:56:17.916Z,27.84
2023-05-01T09:57:17.992Z,29.03
2023-05-01T09:58:18.098Z,30.06
2023-05-01T09:59:18.200Z,29.45
2023-05-01T10:00:18.292Z,28.39
2023-05-01T10:01:18.387Z,27.28
2023-05-01T10:02:18.582Z,26.60
2023-05-01T10:03:18.585Z,25.55
2023-05-01T10:04:18.663Z,26.36
2023-05-01T10:05:18.721Z,25.78
2023-05-01T10:06:18.811Z,25.54
2023-05-01T10:07:18.886Z,24.70
2023-05-01T10:08:18.978Z,25.92
2023-05-01T10:09:19.072Z,26.19
2023-05-01T10:10:19.168Z,25.86
2023-05-01T10:11:19.263Z,25.72
2023-05-01T10:12:19.355Z,24.93
2023-05-01T10:13:19.429Z,26.09
2023-05-01T10:14:19.524Z,26.03
2023-05-01T10:15:26.918Z,27.02
2023-05-01T10:16:19.729Z,28.05
2023-05-01T10:17:19.944Z,27.81
2023-05-01T10:18:19.925Z,27.24
2023-05-01T10:19:19.938Z,26.53
2023-05-01T10:20:20.022Z,25.55
2023-05-01T10:21:20.142Z,26.18
2023-05-01T10:22:20.201Z,25.75
2023-05-01T10:23:20.295Z,26.04
2023-05-01T10:24:20.396Z,26.14
2023-05-01T10:25:20.490Z,25.57
2023-05-01T10:26:20.605Z,24.65
2023-05-01T10:27:20.656Z,25.60
2023-05-01T10:28:20.706Z,23.90
2023-05-01T10:29:20.824Z,24.39
2023-05-01T10:30:20.894Z,24.50
2023-05-01T10:31:21.051Z,24.44
2023-05-01T10:32:21.095Z,24.20
2023-05-01T10:33:21.261Z,24.14
2023-05-01T10:34:21.236Z,22.54
2023-05-01T10:35:21.328Z,22.97
2023-05-01T10:36:21.420Z,23.75
2023-05-01T10:37:21.546Z,23.19
2023-05-01T10:38:21.609Z,24.05
2023-05-01T10:39:21.686Z,24.33
2023-05-01T10:40:21.768Z,23.34
2023-05-01T10:41:21.859Z,23.47
2023-05-01T10:42:21.974Z,24.73
2023-05-01T10:43:22.028Z,24.34
2023-05-01T10:44:22.123Z,24.24
2023-05-01T10:45:22.226Z,23.83
2023-05-01T10:46:28.454Z,25.52
2023-05-01T10:47:22.435Z,24.71
2023-05-01T10:48:22.482Z,24.24
2023-05-01T10:49:22.548Z,23.84
2023-05-01T10:50:22.638Z,24.20
2023-05-01T10:51:26.578Z,23.84
2023-05-01T10:52:22.810Z,25.30
2023-05-01T10:53:22.901Z,24.97
2023-05-01T10:54:22.989Z,26.19
2023-05-01T10:55:23.096Z,25.56
2023-05-01T10:56:23.174Z,24.40
2023-05-01T10:57:23.258Z,25.05
2023-05-01T10:58:23.351Z,25.59
2023-05-01T10:59:23.460Z,25.85
2023-05-01T11:00:23.537Z,26.09
2023-05-01T11:01:23.647Z,24.78
2023-05-01T11:02:23.834Z,26.21
2023-05-01T11:03:23.833Z,25.86
2023-05-01T11:04:23.909Z,26.04
2023-05-01T11:05:35.772Z,25.17
2023-05-01T11:06:24.235Z,24.57
2023-05-01T11:07:24.234Z,23.91
2023-05-01T11:08:24.280Z,23.13
2023-05-01T11:09:24.335Z,24.54
2023-05-01T11:10:24.432Z,24.96
2023-05-01T11:11:24.525Z,25.20
2023-05-01T11:12:24.616Z,25.90
2023-05-01T11:13:24.795Z,25.93
2023-05-01T11:14:24.806Z,25.90
2023-05-01T11:15:24.923Z,25.05
2023-05-01T11:16:25.023Z,26.35
2023-05-01T11:17:31.139Z,25.91
2023-05-01T11:18:25.166Z,25.52
2023-05-01T11:19:25.721Z,25.65
2023-05-01T11:20:25.358Z,25.87
2023-05-01T11:21:25.449Z,25.34
2023-05-01T11:22:25.546Z,24.33
2023-05-01T11:23:25.739Z,23.59
2023-05-01T11:24:25.741Z,24.34
2023-05-01T11:25:25.838Z,24.53
2023-05-01T11:26:25.927Z,25.92
2023-05-01T11:27:26.022Z,26.30
2023-05-01T11:28:26.113Z,25.89
2023-05-01T11:29:26.214Z,24.94
2023-05-01T11:30:26.280Z,23.76
2023-05-01T11:31:26.402Z,25.19
2023-05-01T11:32:26.494Z,24.14
2023-05-01T11:33:26.543Z,24.93
2023-05-01T11:34:26.623Z,24.42
2023-05-01T11:35:26.726Z,25.33
2023-05-01T11:36:26.779Z,24.55
2023-05-01T11:37:26.874Z,25.65
2023-05-01T11:38:26.968Z,24.64
2023-05-01T11:39:27.033Z,24.35
2023-05-01T11:40:27.127Z,23.54
2023-05-01T11:41:27.270Z,24.95
2023-05-01T11:42:27.901Z,26.63
2023-05-01T11:43:27.373Z,25.99
2023-05-01T11:44:27.445Z,25.68
2023-05-01T11:45:27.558Z,26.80
2023-05-01T11:46:27.804Z,26.05
2023-05-01T11:47:27.745Z,25.23
2023-05-01T11:48:33.774Z,24.15
2023-05-01T11:49:27.871Z,23.46
2023-05-01T11:50:27.969Z,23.25
2023-05-01T11:51:28.020Z,23.87
2023-05-01T11:52:28.118Z,23.48
2023-05-01T11:53:28.209Z,23.22
2023-05-01T11:54:28.309Z,23.77
2023-05-01T11:55:28.397Z,23.76
2023-05-01T11:56:28.493Z,23.67
2023-05-01T11:57:28.550Z,23.01
2023-05-01T11:58:28.642Z,23.65
2023-05-01T11:59:28.757Z,23.22
2023-05-01T12:00:28.843Z,23.59
2023-05-01T12:01:28.914Z,22.58
2023-05-01T12:02:29.061Z,21.18
2023-05-01T12:03:29.246Z,23.09
2023-05-01T12:04:32.331Z,23.05
2023-05-01T12:05:29.234Z,24.06
2023-05-01T12:06:29.361Z,24.21
2023-05-01T12:07:29.366Z,23.40
2023-05-01T12:08:29.470Z,22.85
2023-05-01T12:09:29.565Z,22.69
2023-05-01T12:10:29.647Z,22.86
2023-05-01T12:11:29.749Z,23.74
2023-05-01T12:12:29.846Z,23.73
2023-05-01T12:13:29.930Z,23.58
2023-05-01T12:14:30.029Z,23.30
2023-05-01T12:15:30.123Z,24.12
2023-05-01T12:16:30.285Z,22.15
2023-05-01T12:17:30.415Z,22.38
2023-05-01T12:18:30.345Z,22.53
2023-05-01T12:19:36.424Z,22.51
2023-05-01T12:20:30.506Z,22.71
2023-05-01T12:21:30.604Z,22.51
2023-05-01T12:22:30.718Z,23.75
2023-05-01T12:23:30.778Z,22.30
2023-05-01T12:24:30.864Z,22.76
2023-05-01T12:25:30.952Z,23.35
2023-05-01T12:26:31.094Z,22.81
2023-05-01T12:27:31.141Z,23.37
2023-05-01T12:28:31.191Z,23.74
2023-05-01T12:29:31.287Z,24.39
2023-05-01T12:30:31.465Z,24.03
2023-05-01T12:31:31.473Z,25.07
2023-05-01T12:32:31.551Z,24.01
2023-05-01T12:33:31.629Z,23.32
2023-05-01T12:34:31.671Z,22.94
2023-05-01T12:35:31.768Z,23.20
2023-05-01T12:36:31.912Z,22.96
2023-05-01T12:37:31.941Z,23.08
2023-05-01T12:38:32.020Z,24.33
2023-05-01T12:39:32.114Z,23.55
2023-05-01T12:40:32.175Z,23.73
2023-05-01T12:41:32.266Z,24.22
2023-05-01T12:42:32.357Z,24.40
2023-05-01T12:43:32.440Z,24.62
2023-05-01T12:44:32.491Z,25.09
2023-05-01T12:45:32.586Z,23.85
2023-05-01T12:46:32.715Z,24.95
2023-05-01T12:47:32.753Z,24.89
2023-05-01T12:48:32.845Z,24.17
2023-05-01T12:49:32.934Z,24.54
2023-05-01T12:50:39.502Z,25.23
2023-05-01T12:51:33.119Z,24.95
2023-05-01T12:52:33.209Z,24.47
2023-05-01T12:53:33.308Z,25.50